Time;durP1;ratioP1;P1;durP2;ratioP2;P2;SDS_P1;SDS_P2;PMS_P1;PMS_P2;Temp;Humidity;BMP_temperature;BMP_pressure;BME280_temperature;BME280_humidity;BME280_pressure;Samples;Min_cycle;Max_cycle;Signal;HPM_P1;HPM_P2
2023/01/21 00:01:15;;;;;;;;;;;-0.40;99.90;;;;;;5089038;28;20004;-69
2023/01/21 00:03:40;;;;;;;;;;;-0.40;99.90;;;;;;5089848;28;19904;-69
2023/01/21 00:06:06;;;;;;;;;;;-0.50;99.90;;;;;;5090256;28;19927;-70
2023/01/21 00:08:32;;;;;;;;;;;-0.40;99.90;;;;;;5089777;28;20254;-70
2023/01/21 00:11:03;;;;;;;;;;;-0.40;99.90;;;;;;5090486;28;19904;-69
2023/01/21 00:13:28;;;;;;;;;;;-0.40;99.90;;;;;;5071141;28;19948;-70
2023/01/21 00:15:54;;;;;;;;;;;-0.40;99.90;;;;;;5071820;28;20391;-69
2023/01/21 00:18:19;;;;;;;;;;;-0.40;99.90;;;;;;5079139;28;20292;-70
2023/01/21 00:20:45;;;;;;;;;;;-0.40;99.90;;;;;;5090338;28;19915;-69
2023/01/21 00:23:10;;;;;;;;;;;-0.40;99.90;;;;;;5084650;28;20360;-70
2023/01/21 00:25:36;;;;;;;;;;;-0.30;99.90;;;;;;5089788;28;20084;-70
2023/01/21 00:28:01;;;;;;;;;;;-0.40;99.90;;;;;;5091087;28;19904;-69
2023/01/21 00:30:27;;;;;;;;;;;-0.40;99.90;;;;;;5090089;28;19915;-69
2023/01/21 00:32:52;;;;;;;;;;;-0.40;99.90;;;;;;5090980;28;19911;-70
2023/01/21 00:35:18;;;;;;;;;;;-0.30;99.90;;;;;;5089845;28;19954;-69
2023/01/21 00:37:43;;;;;;;;;;;-0.40;99.90;;;;;;5090372;28;19936;-69
2023/01/21 00:40:09;;;;;;;;;;;-0.50;99.90;;;;;;5089369;28;19904;-69
2023/01/21 00:42:34;;;;;;;;;;;-0.40;99.90;;;;;;5090289;28;19915;-69
2023/01/21 00:45:00;;;;;;;;;;;-0.40;99.90;;;;;;5090014;28;20391;-69
2023/01/21 00:47:25;;;;;;;;;;;-0.60;99.90;;;;;;5090167;28;19904;-69
2023/01/21 00:49:51;;;;;;;;;;;-0.70;99.90;;;;;;5089470;28;20401;-69
2023/01/21 00:52:16;;;;;;;;;;;-0.50;99.90;;;;;;5097447;28;19914;-69
2023/01/21 00:54:41;;;;;;;;;;;-0.50;99.90;;;;;;5082875;28;19908;-69
2023/01/21 00:57:07;;;;;;;;;;;-0.60;99.90;;;;;;5078671;28;19908;-69
2023/01/21 00:59:32;;;;;;;;;;;0.10;99.90;;;;;;5082491;28;19904;-69
2023/01/21 01:01:58;;;;;;;;;;;-0.60;99.90;;;;;;5078527;28;19908;-69
2023/01/21 01:04:23;;;;;;;;;;;-0.60;99.90;;;;;;5082846;28;19904;-69
2023/01/21 01:06:49;;;;;;;;;;;-0.60;99.90;;;;;;5078400;28;19904;-69
2023/01/21 01:09:16;;;;;;;;;;;-0.60;99.90;;;;;;5082837;28;20307;-69
2023/01/21 01:11:41;;;;;;;;;;;-0.70;99.90;;;;;;5083772;28;19904;-69
2023/01/21 01:14:06;;;;;;;;;;;-0.70;99.90;;;;;;5071011;28;19992;-69
2023/01/21 01:16:32;;;;;;;;;;;-0.70;99.90;;;;;;5083597;28;19915;-69
2023/01/21 01:18:57;;;;;;;;;;;-0.80;99.90;;;;;;5070624;28;19948;-69
2023/01/21 01:21:23;;;;;;;;;;;-0.80;99.90;;;;;;5083314;28;19911;-69
2023/01/21 01:23:50;;;;;;;;;;;-0.70;99.90;;;;;;5070120;28;19914;-69
2023/01/21 01:26:17;;;;;;;;;;;-1.00;99.90;;;;;;5070622;28;19970;-69
2023/01/21 01:28:43;;;;;;;;;;;-0.80;99.90;;;;;;5070594;28;19905;-69
2023/01/21 01:31:11;;;;;;;;;;;-0.80;99.90;;;;;;5070871;28;19920;-69
2023/01/21 01:33:36;;;;;;;;;;;-0.80;99.90;;;;;;5070340;28;19955;-69
2023/01/21 01:36:03;;;;;;;;;;;-0.80;99.90;;;;;;5070610;28;19944;-69
2023/01/21 01:38:29;;;;;;;;;;;-0.70;99.90;;;;;;5070435;28;19904;-69
2023/01/21 01:40:54;;;;;;;;;;;-0.80;99.90;;;;;;5070611;28;19983;-69
2023/01/21 01:43:21;;;;;;;;;;;-0.90;99.90;;;;;;5070554;28;19923;-69
2023/01/21 01:45:46;;;;;;;;;;;-0.90;99.90;;;;;;5070828;28;19930;-69
2023/01/21 01:48:17;;;;;;;;;;;-0.90;99.90;;;;;;5071338;28;19908;-69
2023/01/21 01:50:43;;;;;;;;;;;-0.90;99.90;;;;;;5083210;28;19979;-69
2023/01/21 01:53:09;;;;;;;;;;;-1.20;99.90;;;;;;5083723;28;20015;-69
2023/01/21 01:55:35;;;;;;;;;;;-0.90;99.90;;;;;;5070697;28;19909;-70
2023/01/21 01:58:02;;;;;;;;;;;-0.90;99.90;;;;;;5071948;28;19904;-69
2023/01/21 02:00:28;;;;;;;;;;;-1.00;99.90;;;;;;5070581;28;19916;-69
2023/01/21 02:05:40;;;;;;;;;;;-1.00;99.90;;;;;;5070243;28;20427;-69
2023/01/21 02:08:05;;;;;;;;;;;-1.00;99.90;;;;;;5087030;28;19916;-69
2023/01/21 02:10:33;;;;;;;;;;;-1.00;99.90;;;;;;5098044;28;20320;-69
2023/01/21 02:12:59;;;;;;;;;;;-0.90;99.90;;;;;;5070868;28;19919;-69
2023/01/21 02:15:34;;;;;;;;;;;-0.90;99.90;;;;;;5078231;28;19908;-69
2023/01/21 02:18:07;;;;;;;;;;;-0.90;99.90;;;;;;5088370;28;20073;-69
2023/01/21 02:20:54;;;;;;;;;;;-0.90;99.90;;;;;;5081369;28;19912;-69
2023/01/21 02:23:19;;;;;;;;;;;-0.90;99.90;;;;;;5078072;28;19947;-70
2023/01/21 02:25:48;;;;;;;;;;;-0.90;99.90;;;;;;5088882;28;19943;-69
2023/01/21 02:28:19;;;;;;;;;;;-0.90;99.90;;;;;;5080461;28;19946;-69
2023/01/21 02:30:47;;;;;;;;;;;0.80;99.90;;;;;;5072843;28;19912;-69
2023/01/21 02:33:17;;;;;;;;;;;-0.90;99.90;;;;;;5073538;28;19970;-69
2023/01/21 02:35:57;;;;;;;;;;;-0.90;99.90;;;;;;5073411;28;19916;-69
2023/01/21 02:38:43;;;;;;;;;;;-0.90;99.90;;;;;;5073289;28;19949;-69
2023/01/21 02:41:11;;;;;;;;;;;-1.00;99.90;;;;;;5080752;28;20301;-69
2023/01/21 02:43:39;;;;;;;;;;;-1.00;99.90;;;;;;5077820;28;20037;-70
2023/01/21 02:46:11;;;;;;;;;;;-1.10;99.90;;;;;;5073873;28;20353;-69
2023/01/21 02:48:44;;;;;;;;;;;-1.00;99.90;;;;;;5074537;28;19985;-69
2023/01/21 02:51:11;;;;;;;;;;;-1.00;99.90;;;;;;5073173;28;20397;-69
2023/01/21 02:53:36;;;;;;;;;;;-0.90;99.90;;;;;;5087328;28;20000;-69
2023/01/21 02:56:08;;;;;;;;;;;-1.00;99.90;;;;;;5073916;28;19996;-69
2023/01/21 02:58:39;;;;;;;;;;;-1.10;99.90;;;;;;5074487;28;19905;-69
2023/01/21 03:01:23;;;;;;;;;;;-1.00;99.90;;;;;;5074030;28;19909;-71
2023/01/21 03:04:07;;;;;;;;;;;-1.00;99.90;;;;;;5074127;28;19950;-70
2023/01/21 03:06:39;;;;;;;;;;;-1.00;99.90;;;;;;5074545;28;19915;-71
2023/01/21 03:09:05;;;;;;;;;;;-1.00;99.90;;;;;;5073519;28;20365;-70
2023/01/21 03:11:31;;;;;;;;;;;-1.10;99.90;;;;;;5077841;28;19910;-68
2023/01/21 03:16:56;;;;;;;;;;;-1.20;99.90;;;;;;5080165;28;19957;-69
2023/01/21 03:19:31;;;;;;;;;;;-1.10;99.90;;;;;;5091446;28;19909;-69
2023/01/21 03:21:58;;;;;;;;;;;-1.20;99.90;;;;;;5092200;28;20006;-70
2023/01/21 03:24:23;;;;;;;;;;;-1.20;99.90;;;;;;5091485;28;19957;-70
2023/01/21 03:26:50;;;;;;;;;;;-1.30;99.90;;;;;;5092140;28;20356;-70
2023/01/21 03:29:21;;;;;;;;;;;-1.20;99.90;;;;;;5091309;28;19947;-70
2023/01/21 03:31:49;;;;;;;;;;;-1.20;99.90;;;;;;5092144;28;19904;-69
2023/01/21 03:34:15;;;;;;;;;;;-1.20;99.90;;;;;;5090709;28;20379;-70
2023/01/21 03:36:47;;;;;;;;;;;-1.30;99.90;;;;;;5091699;28;20013;-70
2023/01/21 03:39:32;;;;;;;;;;;-1.30;99.90;;;;;;5091879;28;20020;-70
2023/01/21 03:41:57;;;;;;;;;;;-1.30;99.90;;;;;;5090778;28;20485;-70
2023/01/21 03:44:23;;;;;;;;;;;-1.30;99.90;;;;;;5091157;28;19908;-70
2023/01/21 03:46:54;;;;;;;;;;;-0.10;99.90;;;;;;5078217;28;19909;-70
2023/01/21 03:49:40;;;;;;;;;;;-1.30;99.90;;;;;;5077631;28;19934;-70
2023/01/21 03:52:07;;;;;;;;;;;-1.40;99.90;;;;;;5089308;28;19908;-70
2023/01/21 03:54:33;;;;;;;;;;;-0.80;99.90;;;;;;5079184;28;19909;-70
2023/01/21 03:56:58;;;;;;;;;;;-1.40;99.90;;;;;;5072112;28;19908;-70
2023/01/21 03:59:24;;;;;;;;;;;-1.30;99.90;;;;;;5072260;28;19991;-70
2023/01/21 04:01:49;;;;;;;;;;;-1.40;99.90;;;;;;5072383;28;20288;-70
2023/01/21 04:04:14;;;;;;;;;;;-1.40;99.90;;;;;;5071437;28;19904;-70
2023/01/21 04:06:40;;;;;;;;;;;-1.40;99.90;;;;;;5084983;28;19904;-70
2023/01/21 04:09:06;;;;;;;;;;;-1.40;99.90;;;;;;5083928;28;19996;-70
2023/01/21 04:11:31;;;;;;;;;;;-1.60;99.90;;;;;;5077770;28;19908;-70
2023/01/21 04:13:57;;;;;;;;;;;-1.50;99.90;;;;;;5080083;28;19916;-70
2023/01/21 04:16:22;;;;;;;;;;;-1.40;99.90;;;;;;5089737;28;20026;-70
2023/01/21 04:18:48;;;;;;;;;;;-1.40;99.90;;;;;;5090626;28;20411;-71
2023/01/21 04:21:14;;;;;;;;;;;-1.50;99.90;;;;;;5090864;28;19904;-70
2023/01/21 04:23:39;;;;;;;;;;;-1.40;99.90;;;;;;5091313;28;19908;-70
2023/01/21 04:26:06;;;;;;;;;;;-1.40;99.90;;;;;;5091228;28;20331;-70
2023/01/21 04:28:32;;;;;;;;;;;-1.40;99.90;;;;;;5091600;28;19914;-70
2023/01/21 04:30:57;;;;;;;;;;;-1.40;99.90;;;;;;5091006;28;19904;-71
2023/01/21 04:33:23;;;;;;;;;;;-1.40;99.90;;;;;;5090751;28;19992;-70
2023/01/21 04:35:48;;;;;;;;;;;-1.40;99.90;;;;;;5085684;28;19965;-70
2023/01/21 04:38:14;;;;;;;;;;;-1.40;99.90;;;;;;5070970;28;19911;-69
2023/01/21 04:40:40;;;;;;;;;;;-1.30;99.90;;;;;;5071222;28;19904;-69
2023/01/21 04:43:05;;;;;;;;;;;-1.40;99.90;;;;;;5071628;28;19930;-70
2023/01/21 04:45:31;;;;;;;;;;;-1.40;99.90;;;;;;5071114;28;20435;-69
2023/01/21 04:47:56;;;;;;;;;;;-1.30;99.90;;;;;;5071281;28;19934;-69
2023/01/21 04:50:22;;;;;;;;;;;-1.50;99.90;;;;;;5071909;28;19916;-69
2023/01/21 04:52:47;;;;;;;;;;;-1.40;99.90;;;;;;5070964;28;20315;-69
2023/01/21 04:55:13;;;;;;;;;;;-1.50;99.90;;;;;;5071756;28;19908;-71
2023/01/21 04:57:38;;;;;;;;;;;-1.60;99.90;;;;;;5070916;28;20003;-69
2023/01/21 05:00:04;;;;;;;;;;;-1.60;99.90;;;;;;5071788;28;19915;-69
2023/01/21 05:02:30;;;;;;;;;;;-1.50;99.90;;;;;;5070448;28;19911;-69
2023/01/21 05:04:55;;;;;;;;;;;-1.50;99.90;;;;;;5072134;28;19905;-69
2023/01/21 05:07:21;;;;;;;;;;;-1.60;99.90;;;;;;5071038;28;20486;-69
2023/01/21 05:09:46;;;;;;;;;;;-1.60;99.90;;;;;;5071439;28;19904;-69
2023/01/21 05:12:12;;;;;;;;;;;-1.50;99.90;;;;;;5070351;28;19904;-69
2023/01/21 05:14:37;;;;;;;;;;;-1.50;99.90;;;;;;5100984;28;20272;-69
2023/01/21 05:17:03;;;;;;;;;;;-0.40;99.90;;;;;;5079666;28;19912;-68
2023/01/21 05:19:28;;;;;;;;;;;-1.50;99.90;;;;;;5070567;28;19922;-69
2023/01/21 05:21:54;;;;;;;;;;;-1.60;99.90;;;;;;5070514;28;19947;-69
2023/01/21 05:24:19;;;;;;;;;;;-1.50;99.90;;;;;;5071400;28;19983;-69
2023/01/21 05:26:45;;;;;;;;;;;-1.60;99.90;;;;;;5070706;28;19905;-69
2023/01/21 05:29:10;;;;;;;;;;;-1.80;99.90;;;;;;5070695;28;20323;-69
2023/01/21 05:31:36;;;;;;;;;;;-1.60;99.90;;;;;;5070560;28;19913;-69
2023/01/21 05:34:02;;;;;;;;;;;-1.60;99.90;;;;;;5071341;28;19941;-69
2023/01/21 05:36:27;;;;;;;;;;;-1.60;99.90;;;;;;5070586;28;20075;-69
2023/01/21 05:38:52;;;;;;;;;;;-1.50;99.90;;;;;;5071271;28;19957;-69
2023/01/21 05:41:18;;;;;;;;;;;-1.60;99.90;;;;;;5070889;28;20345;-69
2023/01/21 05:43:44;;;;;;;;;;;-2.00;99.90;;;;;;5071405;28;19923;-69
2023/01/21 05:46:09;;;;;;;;;;;-1.60;99.90;;;;;;5070272;28;19919;-69
2023/01/21 05:48:35;;;;;;;;;;;-1.60;99.90;;;;;;5071425;28;19947;-69
2023/01/21 05:51:00;;;;;;;;;;;-1.70;99.90;;;;;;5071025;28;19911;-69
2023/01/21 05:53:26;;;;;;;;;;;-1.60;99.90;;;;;;5070679;28;19958;-69
2023/01/21 05:55:55;;;;;;;;;;;-1.70;99.90;;;;;;5070803;28;19916;-69
2023/01/21 05:58:21;;;;;;;;;;;-1.70;99.90;;;;;;5070820;28;19912;-68
2023/01/21 06:00:47;;;;;;;;;;;-1.70;99.90;;;;;;5070944;28;20392;-69
2023/01/21 06:03:13;;;;;;;;;;;-1.60;99.90;;;;;;5071828;28;19911;-69
2023/01/21 06:05:38;;;;;;;;;;;-1.70;99.90;;;;;;5075082;28;20430;-69
2023/01/21 06:08:04;;;;;;;;;;;-1.60;99.90;;;;;;5076091;28;19908;-69
2023/01/21 06:10:29;;;;;;;;;;;-1.50;99.90;;;;;;5087217;28;19996;-69
2023/01/21 06:12:55;;;;;;;;;;;-1.40;99.90;;;;;;5089493;28;19908;-69
2023/01/21 06:15:20;;;;;;;;;;;-1.30;99.90;;;;;;5090258;28;19908;-69
2023/01/21 06:17:46;;;;;;;;;;;-0.80;99.90;;;;;;5087851;28;19919;-69
2023/01/21 06:20:12;;;;;;;;;;;-1.30;99.90;;;;;;5083881;28;20372;-69
2023/01/21 06:22:37;;;;;;;;;;;-1.10;99.90;;;;;;5088167;28;19911;-69
2023/01/21 06:25:03;;;;;;;;;;;-1.20;99.90;;;;;;5091074;28;19931;-69
2023/01/21 06:27:28;;;;;;;;;;;-1.00;99.90;;;;;;5087705;28;19908;-69
2023/01/21 06:29:54;;;;;;;;;;;-1.00;99.90;;;;;;5090909;28;19908;-69
2023/01/21 06:32:19;;;;;;;;;;;-0.90;99.90;;;;;;5088114;28;19905;-69
2023/01/21 06:34:45;;;;;;;;;;;-0.90;99.90;;;;;;5090690;28;19908;-69
2023/01/21 06:37:10;;;;;;;;;;;-0.80;99.90;;;;;;5087520;28;19909;-69
2023/01/21 06:39:36;;;;;;;;;;;-0.90;99.90;;;;;;5090828;28;19912;-68
2023/01/21 06:42:01;;;;;;;;;;;-0.80;99.90;;;;;;5085806;28;20412;-69
2023/01/21 06:44:27;;;;;;;;;;;-0.60;99.90;;;;;;5089933;28;19915;-69
2023/01/21 06:46:52;;;;;;;;;;;-0.70;99.90;;;;;;5086693;28;19948;-69
2023/01/21 06:49:18;;;;;;;;;;;-0.70;99.90;;;;;;5088444;28;19966;-69
2023/01/21 06:51:43;;;;;;;;;;;0.80;99.90;;;;;;5083010;28;19947;-69
2023/01/21 06:54:09;;;;;;;;;;;-0.70;99.90;;;;;;5089549;28;19915;-69
2023/01/21 06:56:35;;;;;;;;;;;-0.70;99.90;;;;;;5085854;28;19908;-69
2023/01/21 06:59:01;;;;;;;;;;;-0.60;99.90;;;;;;5079519;28;19948;-68
2023/01/21 07:01:27;;;;;;;;;;;-0.60;99.90;;;;;;5086610;28;19936;-70
2023/01/21 07:03:52;;;;;;;;;;;-0.60;99.90;;;;;;5089927;28;19904;-68
2023/01/21 07:06:18;;;;;;;;;;;-0.60;99.90;;;;;;5086595;28;19904;-69
2023/01/21 07:08:43;;;;;;;;;;;-0.60;99.90;;;;;;5089813;28;19911;-68
2023/01/21 07:11:08;;;;;;;;;;;-0.60;99.90;;;;;;5077190;28;19909;-68
2023/01/21 07:13:34;;;;;;;;;;;-0.70;99.90;;;;;;5092707;28;19904;-68
2023/01/21 07:16:00;;;;;;;;;;;-0.80;99.90;;;;;;5090634;28;19931;-68
2023/01/21 07:18:25;;;;;;;;;;;-0.60;99.90;;;;;;5081399;28;20284;-68
2023/01/21 07:20:51;;;;;;;;;;;-0.70;99.90;;;;;;5091484;28;19904;-68
2023/01/21 07:23:16;;;;;;;;;;;-0.60;99.90;;;;;;5088716;28;20438;-68
2023/01/21 07:25:42;;;;;;;;;;;-0.70;99.90;;;;;;5083588;28;19915;-69
2023/01/21 07:28:07;;;;;;;;;;;-0.70;99.90;;;;;;5089476;28;19912;-69
2023/01/21 07:30:33;;;;;;;;;;;-0.70;99.90;;;;;;5088777;28;19908;-68
2023/01/21 07:33:03;;;;;;;;;;;-0.70;99.90;;;;;;5088991;28;20026;-69
2023/01/21 07:35:29;;;;;;;;;;;-0.60;99.90;;;;;;5086371;28;19912;-69
2023/01/21 07:37:54;;;;;;;;;;;-0.60;99.90;;;;;;5085592;28;20285;-69
2023/01/21 07:40:20;;;;;;;;;;;-0.60;99.90;;;;;;5085828;28;19908;-69
2023/01/21 07:42:49;;;;;;;;;;;-0.60;99.90;;;;;;5086919;28;19995;-68
2023/01/21 07:45:15;;;;;;;;;;;-0.60;99.90;;;;;;5086813;28;19911;-68
2023/01/21 07:47:40;;;;;;;;;;;-0.60;99.90;;;;;;5090366;28;19908;-70
2023/01/21 07:50:07;;;;;;;;;;;-0.70;99.90;;;;;;5078020;28;19908;-69
2023/01/21 07:52:32;;;;;;;;;;;-0.60;99.90;;;;;;5088118;28;20372;-69
2023/01/21 07:54:58;;;;;;;;;;;-0.60;99.90;;;;;;5085419;28;19919;-69
2023/01/21 07:57:23;;;;;;;;;;;-0.60;99.90;;;;;;5088590;28;19904;-69
2023/01/21 07:59:49;;;;;;;;;;;0.50;99.90;;;;;;5086867;28;19908;-69
2023/01/21 08:02:14;;;;;;;;;;;-0.50;99.90;;;;;;5089136;28;19904;-69
2023/01/21 08:04:40;;;;;;;;;;;-0.30;99.90;;;;;;5081557;28;19954;-70
2023/01/21 08:07:08;;;;;;;;;;;-0.40;99.90;;;;;;5088846;28;19994;-69
2023/01/21 08:09:34;;;;;;;;;;;-0.40;99.90;;;;;;5086167;28;19965;-69
2023/01/21 08:12:00;;;;;;;;;;;-0.30;99.90;;;;;;5070049;28;20364;-70
2023/01/21 08:14:25;;;;;;;;;;;-0.30;99.90;;;;;;5071297;28;19912;-69
2023/01/21 08:16:51;;;;;;;;;;;-0.10;99.90;;;;;;5071611;28;19904;-69
2023/01/21 08:19:16;;;;;;;;;;;-0.20;99.90;;;;;;5071449;28;20281;-69
2023/01/21 08:21:41;;;;;;;;;;;-0.10;99.90;;;;;;5071309;28;19904;-69
2023/01/21 08:24:08;;;;;;;;;;;-0.20;99.90;;;;;;5086112;28;19904;-69
2023/01/21 08:26:34;;;;;;;;;;;-0.20;99.90;;;;;;5082053;28;19916;-69
2023/01/21 08:28:59;;;;;;;;;;;-0.10;99.90;;;;;;5085983;28;19908;-70
2023/01/21 08:31:25;;;;;;;;;;;-0.10;99.90;;;;;;5090538;28;19915;-69
2023/01/21 08:33:50;;;;;;;;;;;-0.20;99.90;;;;;;5090944;28;19942;-70
2023/01/21 08:36:16;;;;;;;;;;;0.00;99.90;;;;;;5091155;28;20288;-70
2023/01/21 08:38:42;;;;;;;;;;;0.20;99.90;;;;;;5090553;28;19904;-69
2023/01/21 08:41:09;;;;;;;;;;;0.10;99.90;;;;;;5091230;28;19911;-69
2023/01/21 08:43:35;;;;;;;;;;;0.10;99.90;;;;;;5090334;28;19942;-69
2023/01/21 08:46:01;;;;;;;;;;;0.20;99.90;;;;;;5089078;28;19947;-70
2023/01/21 08:48:27;;;;;;;;;;;0.20;99.90;;;;;;5090260;28;20008;-69
2023/01/21 08:50:52;;;;;;;;;;;0.20;99.90;;;;;;5090621;28;19904;-69
2023/01/21 08:53:18;;;;;;;;;;;0.30;99.90;;;;;;5089571;28;19904;-70
2023/01/21 08:55:43;;;;;;;;;;;0.30;99.90;;;;;;5090321;28;20364;-69
2023/01/21 08:58:09;;;;;;;;;;;0.30;99.90;;;;;;5090430;28;19912;-70
2023/01/21 09:00:34;;;;;;;;;;;0.50;99.90;;;;;;5090858;28;19911;-72
2023/01/21 09:03:00;;;;;;;;;;;0.40;99.90;;;;;;5089857;28;20656;-70
2023/01/21 09:05:25;;;;;;;;;;;0.50;99.90;;;;;;5090422;28;20391;-70
2023/01/21 09:07:51;;;;;;;;;;;0.60;99.90;;;;;;5088654;28;19904;-70
2023/01/21 09:11:02;;;;;;;;;;;0.50;99.90;;;;;;5081898;28;19904;-70
2023/01/21 09:13:06;;;;;;;;;;;0.50;99.90;;;;;;5090424;28;20011;-70
2023/01/21 09:15:35;;;;;;;;;;;0.60;99.90;;;;;;5090521;28;20029;-70
2023/01/21 09:18:01;;;;;;;;;;;0.70;99.90;;;;;;5087409;28;19953;-70
2023/01/21 09:20:26;;;;;;;;;;;0.70;99.90;;;;;;5081654;28;20318;-70
2023/01/21 09:22:52;;;;;;;;;;;0.70;99.90;;;;;;5089462;28;19911;-70
2023/01/21 09:25:17;;;;;;;;;;;0.80;99.90;;;;;;5090386;28;19904;-70
2023/01/21 09:27:43;;;;;;;;;;;0.90;99.90;;;;;;5090075;28;19904;-73
2023/01/21 09:30:09;;;;;;;;;;;0.80;99.90;;;;;;5090139;28;20183;-73
2023/01/21 09:32:34;;;;;;;;;;;2.90;99.90;;;;;;5089820;28;20261;-71
2023/01/21 09:35:00;;;;;;;;;;;1.00;99.90;;;;;;5090300;28;19918;-71
2023/01/21 09:37:25;;;;;;;;;;;1.00;99.90;;;;;;5089240;28;20250;-71
2023/01/21 09:39:51;;;;;;;;;;;1.00;99.90;;;;;;5093097;28;19920;-71
2023/01/21 09:42:19;;;;;;;;;;;1.00;99.90;;;;;;5093718;28;19995;-71
2023/01/21 09:44:47;;;;;;;;;;;1.10;99.90;;;;;;5094580;28;19904;-71
2023/01/21 09:47:20;;;;;;;;;;;1.00;99.90;;;;;;5093525;28;19908;-71
2023/01/21 09:49:53;;;;;;;;;;;1.10;99.90;;;;;;5094225;28;19926;-70
2023/01/21 09:52:36;;;;;;;;;;;1.10;99.90;;;;;;5080697;28;19990;-72
2023/01/21 09:55:03;;;;;;;;;;;1.10;99.90;;;;;;5093164;28;19908;-71
2023/01/21 09:57:28;;;;;;;;;;;1.40;99.90;;;;;;5094188;28;19908;-71
2023/01/21 09:59:57;;;;;;;;;;;1.20;99.90;;;;;;5089105;28;19908;-71
2023/01/21 10:02:27;;;;;;;;;;;1.20;99.90;;;;;;5093809;28;19915;-72
2023/01/21 10:05:13;;;;;;;;;;;1.30;99.90;;;;;;5091383;28;19976;-72
2023/01/21 10:07:47;;;;;;;;;;;1.20;99.90;;;;;;5091576;28;20368;-72
2023/01/21 10:10:12;;;;;;;;;;;1.30;99.90;;;;;;5073887;28;19905;-72
2023/01/21 10:12:41;;;;;;;;;;;1.40;99.90;;;;;;5085001;28;20032;-72
2023/01/21 10:15:25;;;;;;;;;;;1.40;99.90;;;;;;5088413;28;19911;-72
2023/01/21 10:17:59;;;;;;;;;;;1.50;99.90;;;;;;5096846;28;19954;-72
2023/01/21 10:20:31;;;;;;;;;;;1.50;99.90;;;;;;5081408;28;19905;-71
2023/01/21 10:23:01;;;;;;;;;;;1.50;99.90;;;;;;5093538;28;20361;-71
2023/01/21 10:25:29;;;;;;;;;;;2.20;99.90;;;;;;5092315;28;19909;-72
2023/01/21 10:28:00;;;;;;;;;;;1.60;99.90;;;;;;5096009;28;19957;-71
2023/01/21 10:30:30;;;;;;;;;;;1.70;99.90;;;;;;5083000;28;20002;-72
2023/01/21 10:32:56;;;;;;;;;;;1.60;99.90;;;;;;5093599;28;19995;-72
2023/01/21 10:35:28;;;;;;;;;;;1.60;99.90;;;;;;5092285;28;19999;-72
2023/01/21 10:37:58;;;;;;;;;;;1.70;99.90;;;;;;5095447;28;20313;-72
2023/01/21 10:40:52;;;;;;;;;;;1.70;99.90;;;;;;5094674;28;19936;-72
2023/01/21 10:43:26;;;;;;;;;;;1.70;99.90;;;;;;5073655;28;20376;-71
2023/01/21 10:45:58;;;;;;;;;;;1.70;99.90;;;;;;5093032;28;19908;-73
2023/01/21 10:48:31;;;;;;;;;;;1.80;99.90;;;;;;5098063;28;19911;-72
2023/01/21 10:51:04;;;;;;;;;;;1.80;99.90;;;;;;5094842;28;19965;-72
2023/01/21 10:53:30;;;;;;;;;;;1.90;99.90;;;;;;5084922;28;19908;-72
2023/01/21 10:56:03;;;;;;;;;;;1.90;99.90;;;;;;5090615;28;19923;-72
2023/01/21 10:58:34;;;;;;;;;;;1.90;99.90;;;;;;5086678;28;20276;-72
2023/01/21 11:01:02;;;;;;;;;;;1.90;99.90;;;;;;5092458;28;19917;-72
2023/01/21 11:03:30;;;;;;;;;;;1.90;99.90;;;;;;5079166;28;19915;-72
2023/01/21 11:05:57;;;;;;;;;;;1.90;99.90;;;;;;5076921;28;19951;-72
2023/01/21 11:08:23;;;;;;;;;;;1.90;99.90;;;;;;5089954;28;19908;-72
2023/01/21 11:10:49;;;;;;;;;;;1.70;99.90;;;;;;5088063;28;19991;-72
2023/01/21 11:13:15;;;;;;;;;;;1.70;99.90;;;;;;5092849;28;19904;-72
2023/01/21 11:15:46;;;;;;;;;;;1.20;99.90;;;;;;5093239;28;19912;-72
2023/01/21 11:18:25;;;;;;;;;;;1.60;99.90;;;;;;5080067;28;19925;-72
2023/01/21 11:20:50;;;;;;;;;;;1.50;99.90;;;;;;5093196;28;19915;-72
2023/01/21 11:23:26;;;;;;;;;;;1.50;99.90;;;;;;5092582;28;20273;-72
2023/01/21 11:25:58;;;;;;;;;;;1.60;99.90;;;;;;5076746;28;20284;-72
2023/01/21 11:28:25;;;;;;;;;;;1.60;99.90;;;;;;5088182;28;19904;-72
2023/01/21 11:31:17;;;;;;;;;;;1.60;99.90;;;;;;5080896;28;19920;-72
2023/01/21 11:33:42;;;;;;;;;;;1.40;99.90;;;;;;5080815;28;19904;-72
2023/01/21 11:36:11;;;;;;;;;;;1.40;99.90;;;;;;5076794;28;19912;-72
2023/01/21 11:38:37;;;;;;;;;;;1.40;99.90;;;;;;5089256;28;19904;-72
2023/01/21 11:41:12;;;;;;;;;;;1.30;99.90;;;;;;5080812;28;20045;-72
2023/01/21 11:43:40;;;;;;;;;;;1.40;99.90;;;;;;5090420;28;19988;-72
2023/01/21 11:46:21;;;;;;;;;;;1.40;99.90;;;;;;5090632;28;20292;-72
2023/01/21 11:48:47;;;;;;;;;;;1.40;99.90;;;;;;5089247;28;19904;-72
2023/01/21 11:51:12;;;;;;;;;;;1.40;99.90;;;;;;5089895;28;19998;-72
2023/01/21 11:53:39;;;;;;;;;;;1.50;99.90;;;;;;5075211;28;19916;-73
2023/01/21 11:56:05;;;;;;;;;;;1.50;99.90;;;;;;5082968;28;19915;-72
2023/01/21 11:58:32;;;;;;;;;;;1.60;99.90;;;;;;5079108;28;19908;-73
2023/01/21 12:01:02;;;;;;;;;;;1.60;99.90;;;;;;5079487;28;20009;-72
2023/01/21 12:03:44;;;;;;;;;;;1.50;99.90;;;;;;5077840;28;19919;-72
2023/01/21 12:06:16;;;;;;;;;;;1.60;99.90;;;;;;5082518;28;19991;-73
2023/01/21 12:08:42;;;;;;;;;;;1.80;99.90;;;;;;5075255;28;19928;-72
2023/01/21 12:11:07;;;;;;;;;;;1.90;99.90;;;;;;5082331;28;19920;-72
2023/01/21 12:13:33;;;;;;;;;;;3.80;99.90;;;;;;5084260;28;19922;-72
2023/01/21 12:16:17;;;;;;;;;;;2.20;99.90;;;;;;5085521;28;19919;-73
2023/01/21 12:18:51;;;;;;;;;;;2.40;99.90;;;;;;5096771;28;19943;-72
2023/01/21 12:21:22;;;;;;;;;;;2.60;99.90;;;;;;5092424;28;19915;-72
2023/01/21 12:23:57;;;;;;;;;;;2.80;99.90;;;;;;5102608;28;19912;-72
2023/01/21 12:26:22;;;;;;;;;;;2.80;99.90;;;;;;5095733;28;20385;-72
2023/01/21 12:29:11;;;;;;;;;;;2.90;99.90;;;;;;5097565;28;19954;-72
2023/01/21 12:31:42;;;;;;;;;;;3.00;99.90;;;;;;5088200;28;19919;-72
2023/01/21 12:34:13;;;;;;;;;;;3.20;99.90;;;;;;5099421;28;19907;-72
2023/01/21 12:36:45;;;;;;;;;;;3.10;99.90;;;;;;5089461;28;19916;-72
2023/01/21 12:39:23;;;;;;;;;;;3.00;99.90;;;;;;5098734;28;19966;-72
2023/01/21 12:42:15;;;;;;;;;;;3.10;99.90;;;;;;5090028;28;19961;-72
2023/01/21 12:44:44;;;;;;;;;;;3.10;99.90;;;;;;5090410;28;19913;-70
2023/01/21 12:47:17;;;;;;;;;;;3.20;99.90;;;;;;5089418;28;19924;-70
2023/01/21 12:49:52;;;;;;;;;;;3.30;99.90;;;;;;5085368;28;20380;-70
2023/01/21 12:52:21;;;;;;;;;;;3.20;99.90;;;;;;5072083;28;19908;-70
2023/01/21 12:54:52;;;;;;;;;;;3.30;99.90;;;;;;5077782;28;20361;-70
2023/01/21 12:57:26;;;;;;;;;;;3.30;99.90;;;;;;5073407;28;19908;-70
2023/01/21 12:59:54;;;;;;;;;;;3.30;99.90;;;;;;5083459;28;19912;-70
2023/01/21 13:02:23;;;;;;;;;;;3.30;99.90;;;;;;5086469;28;19956;-70
2023/01/21 13:04:48;;;;;;;;;;;3.30;99.90;;;;;;5090570;28;20276;-70
2023/01/21 13:07:32;;;;;;;;;;;3.40;99.90;;;;;;5090207;28;19904;-70
2023/01/21 13:10:07;;;;;;;;;;;3.40;99.90;;;;;;5085137;28;19912;-70
2023/01/21 13:12:32;;;;;;;;;;;3.40;99.90;;;;;;5070425;28;19905;-70
2023/01/21 13:15:15;;;;;;;;;;;3.50;99.90;;;;;;5102647;28;19930;-70
2023/01/21 13:17:42;;;;;;;;;;;3.50;99.90;;;;;;5075437;28;19995;-70
2023/01/21 13:20:15;;;;;;;;;;;3.30;99.90;;;;;;5078932;28;19904;-70
2023/01/21 13:22:47;;;;;;;;;;;3.20;99.90;;;;;;5085677;28;19957;-70
2023/01/21 13:25:28;;;;;;;;;;;3.00;99.90;;;;;;5073093;28;19947;-71
2023/01/21 13:27:58;;;;;;;;;;;2.90;99.90;;;;;;5099069;28;19915;-70
2023/01/21 13:30:29;;;;;;;;;;;2.70;99.90;;;;;;5094973;28;19908;-71
2023/01/21 13:33:13;;;;;;;;;;;2.60;99.90;;;;;;5080498;28;20390;-70
2023/01/21 13:35:45;;;;;;;;;;;2.50;99.90;;;;;;5080515;28;20289;-70
2023/01/21 13:38:26;;;;;;;;;;;2.40;99.90;;;;;;5081279;28;20287;-71
2023/01/21 13:40:54;;;;;;;;;;;2.40;99.90;;;;;;5078100;28;20357;-71
2023/01/21 13:43:19;;;;;;;;;;;2.40;99.90;;;;;;5082322;28;19920;-72
2023/01/21 13:45:57;;;;;;;;;;;2.40;99.90;;;;;;5070961;28;19930;-71
2023/01/21 13:48:35;;;;;;;;;;;2.40;99.90;;;;;;5099742;28;19944;-70
2023/01/21 13:51:03;;;;;;;;;;;2.30;99.90;;;;;;5099983;28;19908;-70
2023/01/21 13:53:36;;;;;;;;;;;2.40;99.90;;;;;;5086492;28;19912;-70
2023/01/21 13:56:09;;;;;;;;;;;2.50;99.90;;;;;;5080133;28;19923;-70
2023/01/21 13:58:34;;;;;;;;;;;2.60;99.90;;;;;;5073210;28;20027;-70
2023/01/21 14:01:15;;;;;;;;;;;2.70;99.90;;;;;;5075804;28;20385;-70
2023/01/21 14:03:45;;;;;;;;;;;2.80;99.90;;;;;;5085349;28;20030;-70
2023/01/21 14:06:11;;;;;;;;;;;2.80;99.90;;;;;;5096883;28;19907;-70
2023/01/21 14:08:43;;;;;;;;;;;2.90;99.90;;;;;;5070902;28;20416;-71
2023/01/21 14:11:11;;;;;;;;;;;2.90;99.90;;;;;;5081491;28;19926;-70
2023/01/21 14:13:36;;;;;;;;;;;3.10;99.90;;;;;;5107990;28;20017;-72
2023/01/21 14:16:02;;;;;;;;;;;2.90;99.90;;;;;;5094438;28;20018;-71
2023/01/21 14:18:47;;;;;;;;;;;3.00;99.90;;;;;;5101085;28;20053;-70
2023/01/21 14:21:16;;;;;;;;;;;3.00;99.90;;;;;;5050845;28;19999;-70
2023/01/21 14:23:50;;;;;;;;;;;3.50;99.90;;;;;;5070876;28;19912;-70
2023/01/21 14:26:22;;;;;;;;;;;3.00;99.90;;;;;;5086541;28;19908;-71
2023/01/21 14:28:50;;;;;;;;;;;3.00;99.90;;;;;;5088188;28;20045;-70
2023/01/21 14:31:34;;;;;;;;;;;3.00;99.90;;;;;;5093156;28;19980;-70
2023/01/21 14:34:19;;;;;;;;;;;3.10;99.90;;;;;;5096748;28;19911;-70
2023/01/21 14:36:51;;;;;;;;;;;3.10;99.90;;;;;;5100138;27;19916;-70